createdAt,value
2022-10-07T00:00:46.280Z,3.60
2022-10-07T00:03:14.358Z,3.27
2022-10-07T00:05:41.721Z,3.80
2022-10-07T00:08:09.377Z,3.53
2022-10-07T00:10:40.620Z,4.37
2022-10-07T00:13:09.035Z,3.80
2022-10-07T00:15:36.445Z,4.90
2022-10-07T00:18:03.703Z,4.13
2022-10-07T00:20:30.848Z,4.77
2022-10-07T00:22:58.646Z,4.53
2022-10-07T00:25:26.007Z,3.40
2022-10-07T00:27:53.268Z,4.53
2022-10-07T00:30:20.608Z,4.00
2022-10-07T00:32:47.773Z,4.07
2022-10-07T00:35:16.094Z,3.93
2022-10-07T00:37:43.762Z,4.63
2022-10-07T00:40:12.650Z,3.70
2022-10-07T00:42:43.250Z,4.17
2022-10-07T00:45:19.477Z,3.93
2022-10-07T00:47:48.206Z,4.00
2022-10-07T00:50:19.108Z,4.20
2022-10-07T00:52:53.504Z,4.60
2022-10-07T00:55:22.927Z,4.00
2022-10-07T00:57:50.495Z,3.60
2022-10-07T01:00:20.372Z,4.10
2022-10-07T01:02:47.812Z,3.87
2022-10-07T01:05:15.506Z,3.97
2022-10-07T01:07:43.709Z,3.90
2022-10-07T01:10:12.298Z,4.60
2022-10-07T01:12:58.200Z,3.63
2022-10-07T01:15:44.252Z,4.33
2022-10-07T01:18:11.344Z,4.27
2022-10-07T01:20:39.530Z,3.57
2022-10-07T01:23:09.732Z,3.93
2022-10-07T01:25:36.991Z,3.87
2022-10-07T01:28:13.086Z,4.07
2022-10-07T01:30:42.139Z,4.57
2022-10-07T01:33:14.252Z,3.63
2022-10-07T01:35:42.975Z,4.13
2022-10-07T01:38:11.619Z,4.63
2022-10-07T01:40:44.132Z,4.23
2022-10-07T01:43:12.389Z,3.97
2022-10-07T01:45:41.286Z,4.23
2022-10-07T01:48:08.682Z,3.90
2022-10-07T01:50:36.048Z,3.77
2022-10-07T01:53:12.995Z,5.33
2022-10-07T01:55:45.302Z,3.73
2022-10-07T01:58:45.577Z,4.97
2022-10-07T02:01:28.095Z,3.60
2022-10-07T02:04:10.257Z,3.83
2022-10-07T02:06:40.598Z,3.67
2022-10-07T02:09:14.253Z,4.17
2022-10-07T02:11:43.347Z,3.57
2022-10-07T02:14:18.965Z,4.63
2022-10-07T02:16:51.116Z,3.77
2022-10-07T02:19:21.271Z,3.77
2022-10-07T02:21:50.853Z,3.23
2022-10-07T02:24:19.053Z,3.70
2022-10-07T02:26:47.030Z,3.90
2022-10-07T02:29:16.623Z,4.07
2022-10-07T02:31:45.203Z,3.97
2022-10-07T02:34:19.518Z,4.03
2022-10-07T02:36:51.602Z,4.03
2022-10-07T02:39:18.938Z,3.63
2022-10-07T02:41:55.749Z,3.87
2022-10-07T02:44:27.555Z,3.20
2022-10-07T02:46:57.400Z,4.00
2022-10-07T02:49:25.122Z,3.40
2022-10-07T02:51:58.591Z,4.10
2022-10-07T02:54:27.885Z,3.47
2022-10-07T02:56:55.551Z,3.20
2022-10-07T02:59:23.516Z,3.43
2022-10-07T03:01:54.028Z,3.80
2022-10-07T03:04:22.427Z,3.50
2022-10-07T03:06:49.686Z,3.90
2022-10-07T03:09:17.189Z,3.97
2022-10-07T03:11:44.354Z,3.70
2022-10-07T03:14:11.740Z,3.73
2022-10-07T03:16:38.984Z,4.00
2022-10-07T03:19:06.151Z,3.20
2022-10-07T03:21:34.339Z,3.27
2022-10-07T03:24:04.912Z,4.07
2022-10-07T03:26:35.484Z,3.70
2022-10-07T03:29:02.699Z,3.93
2022-10-07T03:31:29.985Z,3.43
2022-10-07T03:33:57.555Z,3.30
2022-10-07T03:36:25.277Z,3.43
2022-10-07T03:38:52.567Z,3.83
2022-10-07T03:41:20.245Z,2.70
2022-10-07T03:43:49.441Z,3.37
2022-10-07T03:46:18.901Z,3.10
2022-10-07T03:48:46.453Z,3.30
2022-10-07T03:51:13.599Z,3.07
2022-10-07T03:53:41.920Z,3.40
2022-10-07T03:56:09.294Z,3.67
2022-10-07T03:58:36.503Z,2.90
2022-10-07T04:01:11.265Z,3.40
2022-10-07T04:03:38.666Z,3.03
2022-10-07T04:06:05.878Z,3.37
2022-10-07T04:08:33.438Z,3.10
2022-10-07T04:11:01.376Z,3.13
2022-10-07T04:13:29.023Z,3.63
2022-10-07T04:16:00.233Z,2.90
2022-10-07T04:18:27.383Z,3.50
2022-10-07T04:20:55.884Z,3.03
2022-10-07T04:23:23.016Z,3.67
2022-10-07T04:25:50.192Z,3.20
2022-10-07T04:28:19.017Z,4.10
2022-10-07T04:30:51.652Z,3.17
2022-10-07T04:33:20.801Z,3.10
2022-10-07T04:35:50.146Z,3.37
2022-10-07T04:38:24.198Z,2.70
2022-10-07T04:40:53.569Z,3.83
2022-10-07T04:43:27.278Z,3.03
2022-10-07T04:45:55.891Z,3.23
2022-10-07T04:48:23.665Z,3.57
2022-10-07T04:50:53.626Z,3.70
2022-10-07T04:53:21.505Z,3.23
2022-10-07T04:55:50.184Z,3.90
2022-10-07T04:58:17.853Z,3.73
2022-10-07T05:00:45.999Z,3.20
2022-10-07T05:03:14.157Z,3.87
2022-10-07T05:05:45.499Z,3.40
2022-10-07T05:08:13.503Z,3.00
2022-10-07T05:10:40.789Z,3.43
2022-10-07T05:13:09.496Z,3.37
2022-10-07T05:15:36.691Z,4.03
2022-10-07T05:18:03.971Z,3.50
2022-10-07T05:20:31.112Z,3.67
2022-10-07T05:23:00.397Z,3.40
2022-10-07T05:25:28.721Z,3.60
2022-10-07T05:27:55.895Z,3.50
2022-10-07T05:30:23.114Z,3.90
2022-10-07T05:32:50.970Z,3.63
2022-10-07T05:35:18.256Z,3.47
2022-10-07T05:37:50.163Z,3.70
2022-10-07T05:40:21.720Z,3.70
2022-10-07T05:42:51.839Z,3.50
2022-10-07T05:45:19.643Z,3.93
2022-10-07T05:47:47.906Z,7.27
2022-10-07T05:50:15.644Z,4.63
2022-10-07T05:52:45.321Z,3.90
2022-10-07T05:55:12.642Z,4.03
2022-10-07T05:57:40.073Z,3.37
2022-10-07T06:00:07.995Z,4.07
2022-10-07T06:02:36.421Z,3.60
2022-10-07T06:05:03.713Z,3.27
2022-10-07T06:07:30.974Z,4.53
2022-10-07T06:10:16.847Z,4.37
2022-10-07T06:13:04.285Z,4.20
2022-10-07T06:15:32.209Z,3.50
2022-10-07T06:17:59.367Z,3.40
2022-10-07T06:20:26.672Z,3.87
2022-10-07T06:22:55.397Z,4.10
2022-10-07T06:25:23.413Z,3.57
2022-10-07T06:27:54.079Z,3.63
2022-10-07T06:30:22.044Z,4.13
2022-10-07T06:32:49.206Z,4.17
2022-10-07T06:35:16.468Z,4.00
2022-10-07T06:37:43.999Z,3.93
2022-10-07T06:40:12.069Z,4.23
2022-10-07T06:42:39.265Z,4.43
2022-10-07T06:45:06.790Z,4.70
2022-10-07T06:47:35.747Z,4.33
2022-10-07T06:50:03.850Z,4.73
2022-10-07T06:52:31.038Z,4.13
2022-10-07T06:55:02.291Z,4.60
2022-10-07T06:57:56.020Z,3.70
2022-10-07T07:00:20.644Z,3.87
2022-10-07T07:02:47.918Z,4.33
2022-10-07T07:05:15.616Z,4.23
2022-10-07T07:07:43.038Z,3.93
2022-10-07T07:10:10.679Z,4.20
2022-10-07T07:12:37.927Z,3.60
2022-10-07T07:15:05.392Z,4.50
2022-10-07T07:17:32.608Z,4.17
2022-10-07T07:19:59.851Z,3.60
2022-10-07T07:22:27.046Z,5.87
2022-10-07T07:24:54.326Z,4.33
2022-10-07T07:27:21.603Z,4.00
2022-10-07T07:29:48.822Z,4.10
2022-10-07T07:32:16.005Z,4.27
2022-10-07T07:34:43.295Z,3.83
2022-10-07T07:37:10.273Z,4.27
2022-10-07T07:39:37.089Z,3.23
2022-10-07T07:42:04.199Z,4.23
2022-10-07T07:44:34.124Z,4.20
2022-10-07T07:47:01.848Z,3.90
2022-10-07T07:49:31.865Z,3.90
2022-10-07T07:51:59.133Z,4.90
2022-10-07T07:54:27.343Z,4.30
2022-10-07T07:56:55.427Z,3.70
2022-10-07T07:59:23.437Z,4.20
2022-10-07T08:01:50.604Z,4.50
2022-10-07T08:04:18.158Z,3.87
2022-10-07T08:06:45.645Z,4.23
2022-10-07T08:09:13.111Z,3.80
2022-10-07T08:11:41.676Z,4.17
2022-10-07T08:14:08.882Z,4.60
2022-10-07T08:16:37.071Z,5.00
2022-10-07T08:19:04.841Z,4.03
2022-10-07T08:21:35.493Z,4.00
2022-10-07T08:24:04.377Z,4.13
2022-10-07T08:26:32.826Z,4.43
2022-10-07T08:29:01.459Z,4.23
2022-10-07T08:31:30.336Z,4.70
2022-10-07T08:34:03.836Z,4.70
2022-10-07T08:36:32.827Z,3.80
2022-10-07T08:39:00.746Z,4.17
2022-10-07T08:41:43.048Z,4.20
2022-10-07T08:44:17.793Z,3.93
2022-10-07T08:46:59.770Z,4.77
2022-10-07T08:49:45.397Z,4.43
2022-10-07T08:52:35.050Z,4.00
2022-10-07T08:55:03.246Z,4.07
2022-10-07T08:57:58.777Z,4.40
2022-10-07T09:00:26.018Z,6.13
2022-10-07T09:03:06.558Z,4.90
2022-10-07T09:05:43.273Z,5.77
2022-10-07T09:08:36.678Z,3.93
2022-10-07T09:11:18.186Z,4.67
2022-10-07T09:13:50.842Z,4.67
2022-10-07T09:16:23.702Z,5.70
2022-10-07T09:18:54.628Z,4.47
2022-10-07T09:21:23.609Z,4.90
2022-10-07T09:23:58.027Z,4.43
2022-10-07T09:26:26.833Z,4.33
2022-10-07T09:28:54.001Z,4.53
2022-10-07T09:31:22.685Z,4.10
2022-10-07T09:33:52.990Z,4.50
2022-10-07T09:36:20.428Z,4.40
2022-10-07T09:38:49.076Z,4.17
2022-10-07T09:41:16.239Z,3.87
2022-10-07T09:43:55.843Z,5.30
2022-10-07T09:46:41.852Z,3.87
2022-10-07T09:49:26.336Z,3.25
2022-10-07T09:52:05.890Z,3.83
2022-10-07T09:54:34.118Z,3.27
2022-10-07T09:57:03.557Z,3.65
2022-10-07T09:59:32.381Z,3.55
2022-10-07T10:01:59.666Z,3.78
2022-10-07T10:04:37.951Z,4.32
2022-10-07T10:07:28.500Z,4.07
2022-10-07T10:09:56.900Z,3.33
2022-10-07T10:12:27.216Z,3.00
2022-10-07T10:14:55.818Z,3.78
2022-10-07T10:17:23.337Z,2.55
2022-10-07T10:19:50.503Z,3.85
2022-10-07T10:22:28.359Z,2.90
2022-10-07T10:25:28.485Z,3.67
2022-10-07T10:28:15.977Z,3.05
2022-10-07T10:30:52.647Z,3.03
2022-10-07T10:33:19.985Z,3.38
2022-10-07T10:36:07.773Z,3.10
2022-10-07T10:38:48.067Z,3.63
2022-10-07T10:41:29.779Z,3.50
2022-10-07T10:44:19.327Z,3.40
2022-10-07T10:46:58.676Z,5.05
2022-10-07T10:49:38.664Z,3.80
2022-10-07T10:52:54.600Z,2.90
2022-10-07T10:55:27.928Z,2.88
2022-10-07T10:58:15.321Z,2.50
2022-10-07T11:00:50.416Z,2.33
2022-10-07T11:03:23.660Z,3.95
2022-10-07T11:05:51.218Z,3.13
2022-10-07T11:08:23.125Z,2.95
2022-10-07T11:11:12.703Z,2.90
2022-10-07T11:14:05.869Z,2.88
2022-10-07T11:17:03.299Z,3.35
2022-10-07T11:19:42.334Z,2.92
2022-10-07T11:22:16.167Z,2.65
2022-10-07T11:24:50.790Z,2.70
2022-10-07T11:27:24.906Z,3.83
2022-10-07T11:29:58.048Z,2.80
2022-10-07T11:32:29.101Z,2.05
2022-10-07T11:34:56.316Z,2.65
2022-10-07T11:37:42.241Z,1.90
2022-10-07T11:40:09.672Z,2.10
2022-10-07T11:42:45.261Z,2.25
2022-10-07T11:45:27.079Z,2.15
2022-10-07T11:47:57.058Z,2.35
2022-10-07T11:50:29.320Z,1.65
2022-10-07T11:53:01.569Z,1.80
2022-10-07T11:55:33.477Z,1.73
2022-10-07T11:58:04.084Z,3.22
2022-10-07T12:00:35.827Z,2.00
2022-10-07T12:03:17.629Z,1.90
2022-10-07T12:05:50.565Z,2.20
2022-10-07T12:08:36.094Z,1.85
2022-10-07T12:11:12.418Z,2.60
2022-10-07T12:13:45.229Z,1.60
2022-10-07T12:16:24.125Z,2.72
2022-10-07T12:19:11.257Z,2.85
2022-10-07T12:22:00.237Z,2.70
2022-10-07T12:24:29.461Z,2.72
2022-10-07T12:27:13.259Z,2.65
2022-10-07T12:30:05.214Z,2.65
2022-10-07T12:32:48.167Z,2.47
2022-10-07T12:35:33.412Z,2.45
2022-10-07T12:38:03.102Z,2.60
2022-10-07T12:40:31.681Z,2.47
2022-10-07T12:43:35.382Z,2.67
2022-10-07T12:46:07.760Z,2.47
2022-10-07T12:48:42.368Z,2.50
2022-10-07T12:51:19.452Z,2.30
2022-10-07T12:53:48.006Z,2.72
2022-10-07T12:56:25.811Z,3.38
2022-10-07T12:59:20.134Z,3.42
2022-10-07T13:01:47.385Z,2.97
2022-10-07T13:04:29.733Z,2.00
2022-10-07T13:07:02.972Z,2.20
2022-10-07T13:09:36.309Z,2.35
2022-10-07T13:12:09.281Z,2.60
2022-10-07T13:14:42.602Z,2.50
2022-10-07T13:17:10.135Z,2.45
2022-10-07T13:19:37.290Z,2.50
2022-10-07T13:22:06.926Z,2.25
2022-10-07T13:24:33.777Z,2.90
2022-10-07T13:27:00.706Z,2.50
2022-10-07T13:29:33.085Z,3.20
2022-10-07T13:32:07.303Z,1.88
2022-10-07T13:34:34.926Z,2.25
2022-10-07T13:37:02.447Z,2.58
2022-10-07T13:39:30.656Z,2.72
2022-10-07T13:42:02.087Z,2.40
2022-10-07T13:44:32.569Z,2.15
2022-10-07T13:47:05.846Z,2.30
2022-10-07T13:49:43.535Z,3.13
2022-10-07T13:52:21.827Z,2.05
2022-10-07T13:54:53.045Z,3.20
2022-10-07T13:57:21.687Z,2.78
2022-10-07T13:59:49.373Z,2.35
2022-10-07T14:02:16.886Z,3.15
2022-10-07T14:04:59.551Z,1.90
2022-10-07T14:07:28.448Z,2.92
2022-10-07T14:10:09.933Z,2.40
2022-10-07T14:12:37.252Z,3.17
2022-10-07T14:15:24.480Z,3.40
2022-10-07T14:17:54.805Z,2.42
2022-10-07T14:20:22.049Z,2.08
2022-10-07T14:22:53.517Z,2.10
2022-10-07T14:25:30.937Z,2.45
2022-10-07T14:27:58.849Z,3.00
2022-10-07T14:30:26.376Z,2.13
2022-10-07T14:33:17.869Z,2.15
2022-10-07T14:35:45.569Z,3.72
2022-10-07T14:38:19.797Z,4.00
2022-10-07T14:40:46.633Z,2.78
2022-10-07T14:43:13.507Z,2.60
2022-10-07T14:45:42.414Z,2.90
2022-10-07T14:48:13.902Z,2.10
2022-10-07T14:50:40.871Z,2.15
2022-10-07T14:53:13.044Z,2.20
2022-10-07T14:55:39.887Z,2.00
2022-10-07T14:58:08.518Z,2.67
2022-10-07T15:00:39.444Z,2.58
2022-10-07T15:03:06.763Z,2.33
2022-10-07T15:05:33.862Z,2.42
2022-10-07T15:08:01.583Z,2.50
2022-10-07T15:10:28.520Z,1.95
2022-10-07T15:12:59.507Z,1.98
2022-10-07T15:15:28.704Z,2.03
2022-10-07T15:17:55.477Z,2.55
2022-10-07T15:20:22.636Z,2.78
2022-10-07T15:22:50.862Z,2.90
2022-10-07T15:25:19.337Z,2.17
2022-10-07T15:27:46.114Z,2.75
2022-10-07T15:30:13.474Z,4.03
2022-10-07T15:32:40.628Z,3.53
2022-10-07T15:35:08.044Z,6.10
2022-10-07T15:37:34.917Z,3.80
2022-10-07T15:40:01.809Z,3.40
2022-10-07T15:42:28.606Z,2.95
2022-10-07T15:44:55.613Z,3.08
2022-10-07T15:47:22.379Z,3.20
2022-10-07T15:49:49.494Z,3.67
2022-10-07T15:52:16.742Z,3.55
2022-10-07T15:54:46.434Z,2.83
2022-10-07T15:57:14.457Z,3.03
2022-10-07T15:59:42.263Z,2.92
2022-10-07T16:02:18.894Z,2.95
2022-10-07T16:04:47.296Z,2.95
2022-10-07T16:07:15.054Z,3.17
2022-10-07T16:09:42.340Z,2.85
2022-10-07T16:12:09.407Z,3.17
2022-10-07T16:14:36.275Z,2.47
2022-10-07T16:17:03.168Z,2.65
2022-10-07T16:19:30.133Z,3.45
2022-10-07T16:21:56.977Z,2.33
2022-10-07T16:24:23.998Z,2.83
2022-10-07T16:26:51.219Z,2.63
2022-10-07T16:29:38.225Z,2.88
2022-10-07T16:32:06.686Z,2.97
2022-10-07T16:34:33.498Z,2.75
2022-10-07T16:37:00.380Z,3.90
2022-10-07T16:39:27.295Z,3.45
2022-10-07T16:41:55.496Z,3.50
2022-10-07T16:44:23.578Z,2.97
2022-10-07T16:46:50.657Z,3.85
2022-10-07T16:49:19.036Z,4.57
2022-10-07T16:51:46.585Z,3.60
2022-10-07T16:54:16.153Z,3.42
2022-10-07T16:56:49.171Z,2.83
2022-10-07T16:59:23.007Z,2.80
2022-10-07T17:01:52.906Z,2.90
2022-10-07T17:04:19.959Z,3.72
2022-10-07T17:06:47.275Z,4.57
2022-10-07T17:09:14.369Z,4.38
2022-10-07T17:11:41.662Z,4.18
2022-10-07T17:14:17.599Z,4.90
2022-10-07T17:16:48.718Z,4.35
2022-10-07T17:19:18.412Z,4.03
2022-10-07T17:21:47.711Z,4.25
2022-10-07T17:24:15.993Z,4.35
2022-10-07T17:26:43.400Z,3.58
2022-10-07T17:29:12.504Z,3.72
2022-10-07T17:31:42.600Z,3.83
2022-10-07T17:34:11.859Z,5.18
2022-10-07T17:36:39.698Z,21.33
2022-10-07T17:39:07.962Z,21.65
2022-10-07T17:41:37.209Z,17.05
2022-10-07T17:44:09.264Z,10.77
2022-10-07T17:46:39.201Z,11.55
2022-10-07T17:49:08.693Z,16.73
2022-10-07T17:51:37.375Z,12.48
2022-10-07T17:54:06.059Z,12.65
2022-10-07T17:56:34.253Z,9.43
2022-10-07T17:59:01.792Z,8.55
2022-10-07T18:01:31.018Z,7.32
2022-10-07T18:04:05.835Z,7.35
2022-10-07T18:06:38.391Z,7.28
2022-10-07T18:09:07.052Z,6.25
2022-10-07T18:11:52.476Z,6.80
2022-10-07T18:14:38.463Z,5.65
2022-10-07T18:17:06.288Z,7.78
2022-10-07T18:19:34.039Z,8.65
2022-10-07T18:22:02.958Z,8.00
2022-10-07T18:24:29.887Z,7.20
2022-10-07T18:26:59.355Z,9.52
2022-10-07T18:29:27.958Z,8.75
2022-10-07T18:31:55.142Z,8.23
2022-10-07T18:34:22.346Z,7.32
2022-10-07T18:36:53.785Z,6.75
2022-10-07T18:39:22.987Z,5.70
2022-10-07T18:41:49.861Z,5.30
2022-10-07T18:44:17.111Z,4.95
2022-10-07T18:46:44.371Z,4.70
2022-10-07T18:49:13.837Z,5.78
2022-10-07T18:51:41.430Z,3.90
2022-10-07T18:54:08.425Z,4.13
2022-10-07T18:56:39.985Z,3.88
2022-10-07T18:59:09.617Z,2.88
2022-10-07T19:01:37.841Z,4.00
2022-10-07T19:04:06.626Z,4.45
2022-10-07T19:06:36.785Z,4.28
2022-10-07T19:09:11.370Z,4.57
2022-10-07T19:11:38.171Z,4.55
2022-10-07T19:14:05.185Z,5.30
2022-10-07T19:16:41.556Z,5.55
2022-10-07T19:19:24.827Z,6.18
2022-10-07T19:21:54.543Z,5.40
2022-10-07T19:24:42.088Z,4.60
2022-10-07T19:27:09.013Z,4.53
2022-10-07T19:29:35.862Z,4.82
2022-10-07T19:32:07.821Z,5.07
2022-10-07T19:34:35.246Z,4.30
2022-10-07T19:37:02.032Z,4.90
2022-10-07T19:39:28.904Z,3.88
2022-10-07T19:41:57.413Z,4.07
2022-10-07T19:44:24.611Z,4.35
2022-10-07T19:46:52.487Z,4.72
2022-10-07T19:49:19.514Z,4.33
2022-10-07T19:51:46.448Z,4.40
2022-10-07T19:54:13.637Z,4.67
2022-10-07T19:56:41.336Z,4.43
2022-10-07T19:59:09.835Z,4.20
2022-10-07T20:01:39.367Z,4.07
2022-10-07T20:04:08.143Z,4.47
2022-10-07T20:06:38.905Z,3.90
2022-10-07T20:09:07.551Z,4.87
2022-10-07T20:11:34.827Z,5.13
2022-10-07T20:14:03.086Z,4.23
2022-10-07T20:16:31.459Z,6.60
2022-10-07T20:19:00.605Z,4.50
2022-10-07T20:21:28.399Z,5.13
2022-10-07T20:23:56.109Z,4.80
2022-10-07T20:26:30.288Z,4.63
2022-10-07T20:28:58.849Z,5.10
2022-10-07T20:31:28.134Z,4.60
2022-10-07T20:33:56.589Z,4.30
2022-10-07T20:36:28.157Z,4.23
2022-10-07T20:39:15.061Z,4.90
2022-10-07T20:42:01.032Z,4.17
2022-10-07T20:44:28.535Z,4.97
2022-10-07T20:46:57.338Z,4.53
2022-10-07T20:49:28.280Z,4.60
2022-10-07T20:51:55.650Z,4.10
2022-10-07T20:54:23.759Z,4.63
2022-10-07T20:56:54.912Z,4.23
2022-10-07T20:59:22.342Z,4.60
2022-10-07T21:01:49.552Z,4.57
2022-10-07T21:04:16.875Z,4.60
2022-10-07T21:06:44.589Z,4.80
2022-10-07T21:09:11.967Z,4.27
2022-10-07T21:11:39.346Z,4.40
2022-10-07T21:14:06.517Z,4.53
2022-10-07T21:16:35.335Z,4.60
2022-10-07T21:19:02.603Z,4.93
2022-10-07T21:21:29.925Z,4.07
2022-10-07T21:23:57.165Z,5.07
2022-10-07T21:26:26.197Z,4.87
2022-10-07T21:28:53.469Z,4.47
2022-10-07T21:31:22.161Z,4.23
2022-10-07T21:33:51.541Z,5.17
2022-10-07T21:36:20.150Z,6.80
2022-10-07T21:38:48.868Z,4.87
2022-10-07T21:41:18.164Z,5.57
2022-10-07T21:43:49.511Z,5.53
2022-10-07T21:46:16.652Z,4.77
2022-10-07T21:48:44.310Z,4.70
2022-10-07T21:51:11.460Z,4.33
2022-10-07T21:53:38.322Z,4.47
2022-10-07T21:56:06.502Z,4.30
2022-10-07T21:58:35.406Z,4.47
2022-10-07T22:01:03.791Z,4.80
2022-10-07T22:03:31.154Z,3.87
2022-10-07T22:06:17.203Z,5.60
2022-10-07T22:08:46.114Z,5.40
2022-10-07T22:11:17.153Z,4.23
2022-10-07T22:13:53.178Z,5.00
2022-10-07T22:16:20.802Z,3.43
2022-10-07T22:18:52.129Z,4.60
2022-10-07T22:21:24.048Z,4.30
2022-10-07T22:23:55.025Z,5.73
2022-10-07T22:26:23.929Z,3.63
2022-10-07T22:28:51.374Z,4.73
2022-10-07T22:31:18.934Z,4.07
2022-10-07T22:33:50.565Z,4.97
2022-10-07T22:36:17.936Z,3.83
2022-10-07T22:38:45.149Z,3.80
2022-10-07T22:41:14.239Z,3.80
2022-10-07T22:43:44.210Z,4.53
2022-10-07T22:46:15.970Z,3.93
2022-10-07T22:48:43.584Z,3.30
2022-10-07T22:51:15.051Z,3.47
2022-10-07T22:53:45.295Z,4.00
2022-10-07T22:56:14.405Z,4.53
2022-10-07T22:58:43.070Z,3.80
2022-10-07T23:01:13.153Z,3.97
2022-10-07T23:03:43.889Z,4.70
2022-10-07T23:06:12.939Z,4.43
2022-10-07T23:08:39.953Z,4.27
2022-10-07T23:11:08.112Z,3.77
2022-10-07T23:13:36.591Z,4.30
2022-10-07T23:16:06.270Z,3.43
2022-10-07T23:18:33.377Z,3.60
2022-10-07T23:21:15.226Z,4.13
2022-10-07T23:23:44.908Z,3.77
2022-10-07T23:26:12.846Z,3.93
2022-10-07T23:28:40.559Z,3.73
2022-10-07T23:31:12.102Z,6.90
2022-10-07T23:33:38.952Z,3.73
2022-10-07T23:36:10.668Z,4.67
2022-10-07T23:38:44.919Z,3.83
2022-10-07T23:41:20.181Z,4.10
2022-10-07T23:43:58.450Z,4.47
2022-10-07T23:46:27.008Z,5.90
2022-10-07T23:48:54.846Z,4.00
2022-10-07T23:51:24.556Z,3.93
2022-10-07T23:53:51.312Z,3.57
2022-10-07T23:56:20.782Z,3.60
2022-10-07T23:58:47.620Z,4.27
